createdAt,value
2019-06-26T00:00:09.138Z,100727.37
2019-06-26T00:00:45.211Z,100723.65
2019-06-26T00:01:21.161Z,100728.75
2019-06-26T00:01:57.098Z,100740.28
2019-06-26T00:02:32.949Z,100735.39
2019-06-26T00:03:08.806Z,100740.80
2019-06-26T00:03:44.674Z,100731.38
2019-06-26T00:04:20.685Z,100737.58
2019-06-26T00:04:56.801Z,100743.20
2019-06-26T00:05:32.727Z,100739.70
2019-06-26T00:06:08.728Z,100745.09
2019-06-26T00:06:44.554Z,100745.09
2019-06-26T00:07:20.407Z,100741.05
2019-06-26T00:07:56.326Z,100753.11
2019-06-26T00:08:32.180Z,100755.23
2019-06-26T00:09:10.415Z,100755.23
2019-06-26T00:09:46.330Z,100761.14
2019-06-26T00:10:22.346Z,100761.14
2019-06-26T00:10:58.254Z,100756.33
2019-06-26T00:11:34.087Z,100767.56
2019-06-26T00:12:09.925Z,100767.56
2019-06-26T00:12:45.794Z,100761.94
2019-06-26T00:13:26.202Z,100761.94
2019-06-26T00:13:59.238Z,100766.98
2019-06-26T00:14:38.585Z,100770.22
2019-06-26T00:15:12.840Z,100777.22
2019-06-26T00:15:49.777Z,100774.52
2019-06-26T00:16:25.585Z,100772.33
2019-06-26T00:17:01.359Z,100766.98
2019-06-26T00:17:37.234Z,100782.05
2019-06-26T00:18:13.072Z,100782.05
2019-06-26T00:18:48.945Z,100782.05
2019-06-26T00:19:24.986Z,100782.05
2019-06-26T00:20:00.919Z,100773.72
2019-06-26T00:20:36.805Z,100771.82
2019-06-26T00:21:12.646Z,100777.22
2019-06-26T00:21:48.632Z,100777.22
2019-06-26T00:22:24.441Z,100783.06
2019-06-26T00:23:00.284Z,100783.06
2019-06-26T00:23:36.829Z,100781.16
2019-06-26T00:24:23.779Z,100781.16
2019-06-26T00:24:59.748Z,100765.84
2019-06-26T00:25:36.581Z,100774.66
2019-06-26T00:26:14.829Z,100762.55
2019-06-26T00:26:50.808Z,100762.55
2019-06-26T00:27:26.817Z,100752.03
2019-06-26T00:28:04.474Z,100776.48
2019-06-26T00:28:41.081Z,100755.46
2019-06-26T00:29:16.997Z,100762.89
2019-06-26T00:29:52.880Z,100771.52
2019-06-26T00:30:29.827Z,100771.52
2019-06-26T00:31:05.860Z,100767.16
2019-06-26T00:31:41.731Z,100767.16
2019-06-26T00:32:17.571Z,100766.05
2019-06-26T00:32:55.765Z,100770.88
2019-06-26T00:33:34.647Z,100770.88
2019-06-26T00:34:12.859Z,100769.98
2019-06-26T00:34:50.550Z,100769.98
2019-06-26T00:35:31.207Z,100772.98
2019-06-26T00:36:07.185Z,100772.98
2019-06-26T00:36:46.003Z,100778.04
2019-06-26T00:37:22.554Z,100780.16
2019-06-26T00:37:58.445Z,100780.16
2019-06-26T00:38:41.504Z,100784.20
2019-06-26T00:39:19.696Z,100788.50
2019-06-26T00:40:03.118Z,100783.66
2019-06-26T00:40:39.060Z,100783.66
2019-06-26T00:41:14.928Z,100795.52
2019-06-26T00:41:52.883Z,100792.81
2019-06-26T00:42:33.560Z,100798.22
2019-06-26T00:43:09.447Z,100797.41
2019-06-26T00:43:46.306Z,100790.16
2019-06-26T00:44:22.159Z,100806.33
2019-06-26T00:44:57.984Z,100806.33
2019-06-26T00:45:38.082Z,100809.02
2019-06-26T00:46:17.182Z,100806.33
2019-06-26T00:46:55.346Z,100807.93
2019-06-26T00:47:31.420Z,100807.13
2019-06-26T00:48:07.390Z,100809.53
2019-06-26T00:48:47.543Z,100809.53
2019-06-26T00:49:24.522Z,100812.23
2019-06-26T00:50:03.761Z,100818.15
2019-06-26T00:50:48.013Z,100812.74
2019-06-26T00:51:23.927Z,100820.27
2019-06-26T00:52:00.010Z,100819.16
2019-06-26T00:52:43.005Z,100818.06
2019-06-26T00:53:21.038Z,100813.25
2019-06-26T00:53:57.134Z,100813.25
2019-06-26T00:54:33.852Z,100816.37
2019-06-26T00:55:09.843Z,100810.47
2019-06-26T00:55:55.286Z,100814.18
2019-06-26T00:56:33.103Z,100821.99
2019-06-26T00:57:08.982Z,100819.00
2019-06-26T00:57:45.009Z,100818.70
2019-06-26T00:58:29.453Z,100820.04
2019-06-26T00:59:06.115Z,100822.15
2019-06-26T00:59:42.903Z,100823.16
2019-06-26T01:00:27.124Z,100828.98
2019-06-26T01:01:11.988Z,100826.13
2019-06-26T01:01:51.743Z,100831.39
2019-06-26T01:02:32.303Z,100830.43
2019-06-26T01:03:14.479Z,100827.83
2019-06-26T01:04:50.506Z,100843.30
2019-06-26T01:05:31.656Z,100843.30
2019-06-26T01:06:13.555Z,100854.13
2019-06-26T01:06:58.899Z,100840.59
2019-06-26T01:07:34.822Z,100844.91
2019-06-26T01:08:19.172Z,100850.72
2019-06-26T01:08:55.818Z,100846.73
2019-06-26T01:09:34.726Z,100851.38
2019-06-26T01:10:11.321Z,100851.16
2019-06-26T01:10:52.289Z,100845.36
2019-06-26T01:11:30.856Z,100853.79
2019-06-26T01:12:08.879Z,100850.58
2019-06-26T01:12:47.475Z,100851.16
2019-06-26T01:13:31.937Z,100849.98
2019-06-26T01:14:12.079Z,100850.78
2019-06-26T01:14:50.116Z,100853.19
2019-06-26T01:16:20.881Z,100851.66
2019-06-26T01:17:53.230Z,100850.14
2019-06-26T01:18:33.659Z,100848.67
2019-06-26T01:19:22.660Z,100849.36
2019-06-26T01:20:01.160Z,100848.33
2019-06-26T01:20:39.501Z,100850.95
2019-06-26T01:22:23.624Z,100849.30
2019-06-26T01:23:05.274Z,100840.64
2019-06-26T01:23:47.060Z,100848.64
2019-06-26T01:24:38.291Z,100853.17
2019-06-26T01:25:14.167Z,100849.84
2019-06-26T01:25:50.085Z,100847.63
2019-06-26T01:26:28.735Z,100841.61
2019-06-26T01:27:09.146Z,100854.55
2019-06-26T01:27:48.156Z,100854.42
2019-06-26T01:28:24.705Z,100847.27
2019-06-26T01:29:00.612Z,100845.53
2019-06-26T01:29:40.553Z,100850.34
2019-06-26T01:30:17.364Z,100849.75
2019-06-26T01:30:56.821Z,100848.33
2019-06-26T01:31:36.673Z,100841.78
2019-06-26T01:32:14.139Z,100845.79
2019-06-26T01:32:57.983Z,100848.98
2019-06-26T01:33:34.899Z,100842.62
2019-06-26T01:34:12.440Z,100850.45
2019-06-26T01:34:59.841Z,100839.28
2019-06-26T01:35:40.284Z,100839.77
2019-06-26T01:36:19.096Z,100835.14
2019-06-26T01:37:06.677Z,100838.38
2019-06-26T01:37:49.291Z,100833.95
2019-06-26T01:38:33.501Z,100835.55
2019-06-26T01:40:04.922Z,100846.59
2019-06-26T01:40:41.970Z,100845.16
2019-06-26T01:41:23.315Z,100843.91
2019-06-26T01:42:04.088Z,100848.08
2019-06-26T01:42:42.327Z,100848.14
2019-06-26T01:43:19.110Z,100850.39
2019-06-26T01:43:55.014Z,100851.51
2019-06-26T01:44:34.986Z,100847.53
2019-06-26T01:45:11.713Z,100846.66
2019-06-26T01:45:56.266Z,100844.77
2019-06-26T01:47:30.745Z,100842.53
2019-06-26T01:48:10.372Z,100839.86
2019-06-26T01:48:48.663Z,100843.73
2019-06-26T01:49:27.277Z,100837.30
2019-06-26T01:50:04.269Z,100844.02
2019-06-26T01:50:42.546Z,100847.05
2019-06-26T01:51:19.291Z,100845.29
2019-06-26T01:52:01.297Z,100844.48
2019-06-26T01:52:50.141Z,100850.89
2019-06-26T01:53:27.637Z,100841.45
2019-06-26T01:55:07.111Z,100837.81
2019-06-26T01:55:47.805Z,100846.30
2019-06-26T01:56:35.230Z,100840.05
2019-06-26T01:57:11.379Z,100839.41
2019-06-26T01:57:52.131Z,100836.73
2019-06-26T01:59:32.059Z,100836.58
2019-06-26T02:00:08.959Z,100840.73
2019-06-26T02:00:57.056Z,100842.17
2019-06-26T02:01:41.897Z,100839.14
2019-06-26T02:02:22.006Z,100847.78
2019-06-26T02:03:53.673Z,100856.28
2019-06-26T02:04:29.471Z,100858.02
2019-06-26T02:05:06.344Z,100864.11
2019-06-26T02:05:50.949Z,100868.25
2019-06-26T02:06:26.838Z,100861.22
2019-06-26T02:07:02.946Z,100870.66
2019-06-26T02:07:40.421Z,100872.10
2019-06-26T02:08:16.789Z,100876.55
2019-06-26T02:08:55.612Z,100874.95
2019-06-26T02:10:28.274Z,100884.03
2019-06-26T02:11:18.501Z,100882.62
2019-06-26T02:12:03.158Z,100879.62
2019-06-26T02:12:41.720Z,100877.53
2019-06-26T02:13:22.225Z,100878.19
2019-06-26T02:13:59.690Z,100879.00
2019-06-26T02:14:44.980Z,100874.84
2019-06-26T02:15:21.837Z,100872.13
2019-06-26T02:15:58.652Z,100873.25
2019-06-26T02:16:34.950Z,100867.33
2019-06-26T02:17:10.818Z,100869.58
2019-06-26T02:17:47.029Z,100865.58
2019-06-26T02:18:41.978Z,100859.94
2019-06-26T02:19:18.557Z,100855.45
2019-06-26T02:19:55.572Z,100858.76
2019-06-26T02:20:36.820Z,100853.34
2019-06-26T02:21:12.636Z,100848.36
2019-06-26T02:21:49.750Z,100847.70
2019-06-26T02:22:34.172Z,100848.17
2019-06-26T02:23:10.898Z,100839.81
2019-06-26T02:23:50.317Z,100849.45
2019-06-26T02:24:28.765Z,100848.50
2019-06-26T02:25:12.726Z,100845.96
2019-06-26T02:25:50.524Z,100851.09
2019-06-26T02:26:29.694Z,100848.38
2019-06-26T02:28:19.366Z,100843.44
2019-06-26T02:28:59.351Z,100846.66
2019-06-26T02:29:36.968Z,100843.31
2019-06-26T02:30:13.638Z,100843.95
2019-06-26T02:30:51.989Z,100840.77
2019-06-26T02:31:32.213Z,100840.77
2019-06-26T02:32:08.908Z,100847.16
2019-06-26T02:32:46.922Z,100842.48
2019-06-26T02:33:28.846Z,100840.23
2019-06-26T02:34:06.844Z,100841.47
2019-06-26T02:34:46.633Z,100837.09
2019-06-26T02:35:23.082Z,100832.23
2019-06-26T02:36:00.560Z,100837.03
2019-06-26T02:36:38.069Z,100833.83
2019-06-26T02:37:22.236Z,100840.41
2019-06-26T02:38:12.680Z,100835.15
2019-06-26T02:38:48.551Z,100831.64
2019-06-26T02:39:24.980Z,100847.05
2019-06-26T02:40:00.989Z,100844.66
2019-06-26T02:40:36.919Z,100839.06
2019-06-26T02:41:13.746Z,100840.00
2019-06-26T02:41:49.734Z,100838.41
2019-06-26T02:42:30.676Z,100840.28
2019-06-26T02:43:09.878Z,100844.45
2019-06-26T02:43:48.528Z,100839.00
2019-06-26T02:44:24.406Z,100839.94
2019-06-26T02:45:09.643Z,100847.27
2019-06-26T02:45:46.757Z,100842.12
2019-06-26T02:46:22.693Z,100844.22
2019-06-26T02:47:18.328Z,100845.81
2019-06-26T02:47:41.520Z,100849.67
2019-06-26T02:48:20.533Z,100841.63
2019-06-26T02:48:58.941Z,100840.22
2019-06-26T02:49:35.073Z,100840.74
2019-06-26T02:50:10.933Z,100839.00
2019-06-26T02:50:56.422Z,100835.64
2019-06-26T02:51:32.380Z,100844.00
2019-06-26T02:52:08.991Z,100842.26
2019-06-26T02:52:45.447Z,100840.84
2019-06-26T02:53:21.562Z,100841.00
2019-06-26T02:53:57.534Z,100836.83
2019-06-26T02:54:33.433Z,100841.52
2019-06-26T02:55:09.979Z,100842.16
2019-06-26T02:55:45.917Z,100845.36
2019-06-26T02:56:21.875Z,100849.70
2019-06-26T02:56:57.737Z,100845.41
2019-06-26T02:57:33.592Z,100850.67
2019-06-26T02:58:09.459Z,100851.31
2019-06-26T02:58:45.420Z,100849.53
2019-06-26T02:59:21.863Z,100847.63
2019-06-26T02:59:58.914Z,100844.11
2019-06-26T03:00:34.703Z,100852.59
2019-06-26T03:01:10.660Z,100847.00
2019-06-26T03:01:46.538Z,100841.23
2019-06-26T03:02:22.364Z,100841.69
2019-06-26T03:02:58.272Z,100841.38
2019-06-26T03:03:34.168Z,100836.41
2019-06-26T03:04:10.031Z,100841.05
2019-06-26T03:04:45.812Z,100847.29
2019-06-26T03:05:21.637Z,100845.88
2019-06-26T03:05:57.704Z,100837.39
2019-06-26T03:06:33.529Z,100839.79
2019-06-26T03:07:09.396Z,100840.76
2019-06-26T03:07:48.150Z,100833.39
2019-06-26T03:08:23.985Z,100834.19
2019-06-26T03:08:59.843Z,100834.19
2019-06-26T03:09:35.688Z,100836.91
2019-06-26T03:10:12.043Z,100832.89
2019-06-26T03:10:47.902Z,100829.22
2019-06-26T03:11:24.003Z,100827.61
2019-06-26T03:11:59.874Z,100836.58
2019-06-26T03:12:35.718Z,100834.66
2019-06-26T03:13:11.667Z,100833.05
2019-06-26T03:13:47.463Z,100824.42
2019-06-26T03:14:23.779Z,100831.79
2019-06-26T03:15:08.987Z,100825.23
2019-06-26T03:15:37.293Z,100825.70
2019-06-26T03:16:13.145Z,100822.98
2019-06-26T03:16:48.963Z,100818.99
2019-06-26T03:17:24.752Z,100818.67
2019-06-26T03:18:00.588Z,100819.47
2019-06-26T03:18:36.793Z,100827.30
2019-06-26T03:19:12.665Z,100826.50
2019-06-26T03:19:48.463Z,100822.66
2019-06-26T03:20:27.396Z,100819.63
2019-06-26T03:21:03.229Z,100829.53
2019-06-26T03:21:39.083Z,100820.58
2019-06-26T03:22:14.842Z,100824.42
2019-06-26T03:22:50.658Z,100822.50
2019-06-26T03:23:26.499Z,100823.30
2019-06-26T03:24:02.312Z,100821.70
2019-06-26T03:24:38.197Z,100822.82
2019-06-26T03:25:14.177Z,100818.83
2019-06-26T03:25:50.012Z,100821.55
2019-06-26T03:26:25.843Z,100827.30
2019-06-26T03:27:01.694Z,100823.47
2019-06-26T03:27:37.683Z,100827.46
2019-06-26T03:28:14.620Z,100824.73
2019-06-26T03:28:50.764Z,100828.58
2019-06-26T03:29:27.073Z,100826.02
2019-06-26T03:30:03.140Z,100827.61
2019-06-26T03:30:39.291Z,100827.61
2019-06-26T03:31:15.355Z,100832.41
2019-06-26T03:31:51.575Z,100817.69
2019-06-26T03:32:27.832Z,100829.69
2019-06-26T03:33:04.190Z,100812.25
2019-06-26T03:33:41.292Z,100819.47
2019-06-26T03:34:17.378Z,100824.27
2019-06-26T03:34:53.648Z,100820.58
2019-06-26T03:35:29.902Z,100823.45
2019-06-26T03:36:06.042Z,100819.28
2019-06-26T03:36:42.406Z,100824.10
2019-06-26T03:37:18.639Z,100818.02
2019-06-26T03:37:54.891Z,100814.81
2019-06-26T03:38:31.148Z,100821.23
2019-06-26T03:39:08.653Z,100817.39
2019-06-26T03:39:44.959Z,100815.14
2019-06-26T03:40:21.169Z,100813.55
2019-06-26T03:40:57.384Z,100814.34
2019-06-26T03:41:33.622Z,100818.02
2019-06-26T03:42:09.876Z,100815.29
2019-06-26T03:42:46.141Z,100812.56
2019-06-26T03:43:22.475Z,100815.29
2019-06-26T03:43:58.751Z,100808.25
2019-06-26T03:44:35.020Z,100809.05
2019-06-26T03:45:24.637Z,100816.27
2019-06-26T03:45:48.922Z,100807.78
2019-06-26T03:46:24.826Z,100809.84
2019-06-26T03:47:00.671Z,100811.95
2019-06-26T03:47:36.631Z,100808.11
2019-06-26T03:48:12.512Z,100805.38
2019-06-26T03:48:48.460Z,100808.25
2019-06-26T03:49:24.332Z,100803.61
2019-06-26T03:50:00.278Z,100808.58
2019-06-26T03:50:36.447Z,100805.86
2019-06-26T03:51:14.113Z,100803.79
2019-06-26T03:51:50.475Z,100805.53
2019-06-26T03:52:26.605Z,100805.53
2019-06-26T03:53:02.920Z,100796.89
2019-06-26T03:53:39.022Z,100795.12
2019-06-26T03:54:15.148Z,100797.52
2019-06-26T03:54:51.425Z,100802.16
2019-06-26T03:55:27.567Z,100799.76
2019-06-26T03:56:03.645Z,100793.70
2019-06-26T03:56:39.802Z,100792.72
2019-06-26T03:57:15.937Z,100796.71
2019-06-26T03:57:52.045Z,100798.16
2019-06-26T03:58:28.125Z,100798.16
2019-06-26T03:59:04.239Z,100797.03
2019-06-26T03:59:40.327Z,100791.59
2019-06-26T04:00:17.995Z,100794.97
2019-06-26T04:00:54.226Z,100792.74
2019-06-26T04:01:30.329Z,100798.51
2019-06-26T04:02:06.561Z,100795.31
2019-06-26T04:02:42.648Z,100792.59
2019-06-26T04:03:18.800Z,100777.36
2019-06-26T04:03:57.373Z,100786.03
2019-06-26T04:04:32.836Z,100784.11
2019-06-26T04:05:09.016Z,100786.98
2019-06-26T04:05:45.089Z,100786.83
2019-06-26T04:06:21.406Z,100787.77
2019-06-26T04:06:57.563Z,100786.49
2019-06-26T04:07:33.764Z,100785.39
2019-06-26T04:08:09.977Z,100781.55
2019-06-26T04:08:46.299Z,100787.48
2019-06-26T04:09:22.407Z,100781.39
2019-06-26T04:09:58.459Z,100781.55
2019-06-26T04:10:34.652Z,100780.25
2019-06-26T04:11:10.903Z,100780.73
2019-06-26T04:11:47.141Z,100781.20
2019-06-26T04:12:23.298Z,100782.98
2019-06-26T04:12:59.409Z,100777.05
2019-06-26T04:13:35.697Z,100772.40
2019-06-26T04:14:11.762Z,100773.34
2019-06-26T04:14:47.911Z,100779.77
2019-06-26T04:15:24.088Z,100775.45
2019-06-26T04:16:00.278Z,100775.27
2019-06-26T04:16:36.421Z,100782.93
2019-06-26T04:17:12.661Z,100770.59
2019-06-26T04:17:48.601Z,100780.83
2019-06-26T04:18:24.631Z,100768.19
2019-06-26T04:19:00.653Z,100773.63
2019-06-26T04:19:36.892Z,100770.91
2019-06-26T04:20:12.737Z,100764.80
2019-06-26T04:20:48.656Z,100758.70
2019-06-26T04:21:24.444Z,100762.84
2019-06-26T04:22:00.277Z,100764.25
2019-06-26T04:22:36.108Z,100763.15
2019-06-26T04:23:11.997Z,100766.37
2019-06-26T04:23:47.804Z,100763.65
2019-06-26T04:24:23.633Z,100766.52
2019-06-26T04:24:59.609Z,100754.82
2019-06-26T04:25:38.150Z,100761.52
2019-06-26T04:26:13.062Z,100763.15
2019-06-26T04:26:48.913Z,100763.78
2019-06-26T04:27:25.942Z,100764.91
2019-06-26T04:28:02.068Z,100762.04
2019-06-26T04:28:38.054Z,100767.81
2019-06-26T04:29:13.911Z,100761.90
2019-06-26T04:29:49.737Z,100754.06
2019-06-26T04:30:25.733Z,100749.27
2019-06-26T04:31:01.579Z,100758.25
2019-06-26T04:31:37.450Z,100753.60
2019-06-26T04:32:13.314Z,100753.78
2019-06-26T04:32:49.167Z,100753.45
2019-06-26T04:33:24.985Z,100755.05
2019-06-26T04:34:00.796Z,100756.51
2019-06-26T04:34:36.668Z,100755.70
2019-06-26T04:35:12.680Z,100748.34
2019-06-26T04:35:48.503Z,100753.17
2019-06-26T04:36:24.375Z,100754.77
2019-06-26T04:37:00.218Z,100756.36
2019-06-26T04:37:36.049Z,100759.41
2019-06-26T04:38:11.871Z,100761.01
2019-06-26T04:38:47.683Z,100754.44
2019-06-26T04:39:23.530Z,100753.31
2019-06-26T04:39:59.395Z,100759.23
2019-06-26T04:40:35.397Z,100762.42
2019-06-26T04:41:11.196Z,100758.91
2019-06-26T04:41:47.059Z,100763.55
2019-06-26T04:42:22.956Z,100763.55
2019-06-26T04:42:58.912Z,100762.75
2019-06-26T04:43:34.693Z,100772.69
2019-06-26T04:44:10.515Z,100772.55
2019-06-26T04:44:46.330Z,100764.71
2019-06-26T04:45:22.183Z,100764.09
2019-06-26T04:45:58.856Z,100765.22
2019-06-26T04:46:34.947Z,100765.36
2019-06-26T04:47:10.766Z,100765.51
2019-06-26T04:47:46.587Z,100765.36
2019-06-26T04:48:22.393Z,100764.56
2019-06-26T04:48:58.362Z,100771.61
2019-06-26T04:49:34.168Z,100766.81
2019-06-26T04:50:10.325Z,100769.03
2019-06-26T04:50:46.198Z,100760.39
2019-06-26T04:51:22.146Z,100764.23
2019-06-26T04:51:58.179Z,100761.05
2019-06-26T04:52:34.021Z,100753.98
2019-06-26T04:53:09.858Z,100760.07
2019-06-26T04:53:45.677Z,100755.09
2019-06-26T04:54:21.560Z,100752.37
2019-06-26T04:54:57.382Z,100744.72
2019-06-26T04:55:33.306Z,100744.87
2019-06-26T04:56:09.261Z,100742.80
2019-06-26T04:56:45.112Z,100746.45
2019-06-26T04:57:21.103Z,100735.57
2019-06-26T04:57:56.938Z,100739.56
2019-06-26T04:58:32.828Z,100737.31
2019-06-26T04:59:08.653Z,100738.44
2019-06-26T04:59:44.498Z,100742.75
2019-06-26T05:00:21.845Z,100740.83
2019-06-26T05:00:57.948Z,100737.64
2019-06-26T05:01:33.792Z,100738.58
2019-06-26T05:02:09.620Z,100741.12
2019-06-26T05:02:45.510Z,100737.27
2019-06-26T05:03:21.417Z,100735.05
2019-06-26T05:03:57.220Z,100738.57
2019-06-26T05:04:34.207Z,100734.39
2019-06-26T05:05:10.153Z,100732.14
2019-06-26T05:05:45.996Z,100725.56
2019-06-26T05:06:21.803Z,100731.48
2019-06-26T05:06:57.785Z,100724.58
2019-06-26T05:07:34.201Z,100726.98
2019-06-26T05:08:10.079Z,100728.57
2019-06-26T05:08:45.911Z,100729.84
2019-06-26T05:09:21.869Z,100722.47
2019-06-26T05:09:57.813Z,100724.06
2019-06-26T05:10:33.652Z,100727.91
2019-06-26T05:11:12.515Z,100726.78
2019-06-26T05:11:47.159Z,100724.20
2019-06-26T05:12:22.987Z,100719.08
2019-06-26T05:12:58.839Z,100722.30
2019-06-26T05:13:34.783Z,100722.80
2019-06-26T05:14:10.727Z,100722.61
2019-06-26T05:14:46.551Z,100726.13
2019-06-26T05:15:22.610Z,100720.38
2019-06-26T05:16:13.726Z,100716.56
2019-06-26T05:16:36.122Z,100724.40
2019-06-26T05:17:11.966Z,100719.75
2019-06-26T05:17:47.797Z,100716.03
2019-06-26T05:18:23.718Z,100710.72
2019-06-26T05:18:59.724Z,100716.77
2019-06-26T05:19:35.585Z,100711.63
2019-06-26T05:20:11.998Z,100711.42
2019-06-26T05:20:48.084Z,100710.77
2019-06-26T05:21:24.009Z,100717.00
2019-06-26T05:21:59.933Z,100712.82
2019-06-26T05:22:35.736Z,100715.55
2019-06-26T05:23:11.578Z,100707.17
2019-06-26T05:23:47.392Z,100715.81
2019-06-26T05:24:24.061Z,100711.95
2019-06-26T05:24:59.845Z,100708.09
2019-06-26T05:25:35.689Z,100705.37
2019-06-26T05:26:11.512Z,100714.05
2019-06-26T05:26:47.486Z,100706.66
2019-06-26T05:27:23.298Z,100702.01
2019-06-26T05:27:59.285Z,100705.23
2019-06-26T05:28:35.100Z,100705.23
2019-06-26T05:29:10.939Z,100702.01
2019-06-26T05:29:46.898Z,100704.24
2019-06-26T05:30:22.726Z,100709.69
2019-06-26T05:30:58.709Z,100705.87
2019-06-26T05:31:34.542Z,100711.31
2019-06-26T05:32:10.402Z,100705.70
2019-06-26T05:32:46.211Z,100702.64
2019-06-26T05:33:22.051Z,100709.05
2019-06-26T05:33:57.841Z,100708.75
2019-06-26T05:34:33.777Z,100702.97
2019-06-26T05:35:09.663Z,100706.95
2019-06-26T05:35:45.496Z,100707.08
2019-06-26T05:36:21.332Z,100710.73
2019-06-26T05:36:57.212Z,100696.77
2019-06-26T05:37:33.079Z,100699.62
2019-06-26T05:38:08.910Z,100700.11
2019-06-26T05:38:44.729Z,100697.17
2019-06-26T05:39:20.557Z,100698.56
2019-06-26T05:39:56.385Z,100696.75
2019-06-26T05:40:32.248Z,100700.41
2019-06-26T05:41:08.190Z,100694.27
2019-06-26T05:41:44.027Z,100694.61
2019-06-26T05:42:19.843Z,100692.04
2019-06-26T05:42:55.741Z,100696.17
2019-06-26T05:43:31.701Z,100693.23
2019-06-26T05:44:07.537Z,100690.96
2019-06-26T05:44:43.409Z,100688.69
2019-06-26T05:45:19.291Z,100677.78
2019-06-26T05:45:55.251Z,100687.55
2019-06-26T05:46:31.881Z,100680.84
2019-06-26T05:47:07.829Z,100689.58
2019-06-26T05:47:43.693Z,100683.67
2019-06-26T05:48:19.555Z,100693.63
2019-06-26T05:48:55.393Z,100693.81
2019-06-26T05:49:31.213Z,100687.91
2019-06-26T05:50:07.744Z,100684.72
2019-06-26T05:50:43.850Z,100684.72
2019-06-26T05:51:19.703Z,100691.76
2019-06-26T05:51:55.855Z,100684.25
2019-06-26T05:52:31.647Z,100680.61
2019-06-26T05:53:07.612Z,100688.20
2019-06-26T05:53:43.440Z,100683.42
2019-06-26T05:54:19.218Z,100692.58
2019-06-26T05:54:55.157Z,100690.06
2019-06-26T05:55:30.961Z,100683.89
2019-06-26T05:56:06.850Z,100675.39
2019-06-26T05:56:45.328Z,100679.25
2019-06-26T05:57:20.721Z,100676.86
2019-06-26T05:57:56.581Z,100677.60
2019-06-26T05:58:32.455Z,100675.21
2019-06-26T05:59:08.388Z,100669.14
2019-06-26T05:59:44.454Z,100667.87
2019-06-26T06:00:20.458Z,100666.02
2019-06-26T06:00:56.252Z,100664.29
2019-06-26T06:01:32.090Z,100667.67
2019-06-26T06:02:07.950Z,100664.48
2019-06-26T06:02:43.770Z,100670.40
2019-06-26T06:03:19.716Z,100666.08
2019-06-26T06:03:55.522Z,100662.23
2019-06-26T06:04:31.506Z,100661.90
2019-06-26T06:05:07.601Z,100664.29
2019-06-26T06:05:43.427Z,100660.11
2019-06-26T06:06:19.355Z,100665.22
2019-06-26T06:06:55.214Z,100661.03
2019-06-26T06:07:31.000Z,100663.89
2019-06-26T06:08:06.841Z,100662.42
2019-06-26T06:08:42.696Z,100666.11
2019-06-26T06:09:18.665Z,100663.52
2019-06-26T06:09:54.825Z,100663.98
2019-06-26T06:10:31.366Z,100664.91
2019-06-26T06:11:08.187Z,100657.20
2019-06-26T06:11:44.848Z,100657.45
2019-06-26T06:12:21.527Z,100654.25
2019-06-26T06:12:57.855Z,100661.20
2019-06-26T06:13:34.272Z,100657.59
2019-06-26T06:14:10.659Z,100659.13
2019-06-26T06:14:46.755Z,100650.06
2019-06-26T06:15:23.236Z,100649.53
2019-06-26T06:15:59.547Z,100641.63
2019-06-26T06:16:46.814Z,100650.50
2019-06-26T06:17:13.804Z,100641.45
2019-06-26T06:17:50.108Z,100643.05
2019-06-26T06:18:26.462Z,100642.16
2019-06-26T06:19:02.923Z,100644.02
2019-06-26T06:19:39.349Z,100640.36
2019-06-26T06:20:16.087Z,100649.00
2019-06-26T06:20:52.338Z,100644.94
2019-06-26T06:21:28.896Z,100650.39
2019-06-26T06:22:04.839Z,100644.70
2019-06-26T06:22:40.851Z,100639.24
2019-06-26T06:23:16.875Z,100644.02
2019-06-26T06:23:53.455Z,100640.83
2019-06-26T06:24:29.736Z,100649.25
2019-06-26T06:25:06.086Z,100637.18
2019-06-26T06:25:42.477Z,100641.16
2019-06-26T06:26:18.832Z,100642.41
2019-06-26T06:26:54.923Z,100638.88
2019-06-26T06:27:31.444Z,100631.97
2019-06-26T06:28:08.377Z,100628.76
2019-06-26T06:28:44.853Z,100635.81
2019-06-26T06:29:22.131Z,100634.91
2019-06-26T06:29:58.604Z,100629.68
2019-06-26T06:30:34.943Z,100636.73
2019-06-26T06:31:11.168Z,100641.39
2019-06-26T06:31:47.217Z,100637.63
2019-06-26T06:32:23.410Z,100633.08
2019-06-26T06:32:59.750Z,100631.28
2019-06-26T06:33:36.066Z,100625.14
2019-06-26T06:34:12.413Z,100635.03
2019-06-26T06:34:48.660Z,100626.27
2019-06-26T06:35:24.726Z,100626.14
2019-06-26T06:36:02.333Z,100633.30
2019-06-26T06:36:38.691Z,100623.77
2019-06-26T06:37:14.796Z,100628.30
2019-06-26T06:37:51.012Z,100623.76
2019-06-26T06:38:27.436Z,100621.38
2019-06-26T06:39:04.292Z,100626.70
2019-06-26T06:39:40.191Z,100624.91
2019-06-26T06:40:16.345Z,100628.19
2019-06-26T06:40:52.232Z,100626.70
2019-06-26T06:41:28.227Z,100611.11
2019-06-26T06:42:04.221Z,100617.84
2019-06-26T06:42:40.142Z,100612.14
2019-06-26T06:43:16.661Z,100610.55
2019-06-26T06:43:52.612Z,100607.02
2019-06-26T06:44:28.494Z,100603.50
2019-06-26T06:45:04.344Z,100609.86
2019-06-26T06:45:40.197Z,100607.58
2019-06-26T06:46:15.963Z,100603.04
2019-06-26T06:47:03.245Z,100603.23
2019-06-26T06:47:33.482Z,100603.44
2019-06-26T06:48:09.315Z,100594.89
2019-06-26T06:48:45.156Z,100606.16
2019-06-26T06:49:20.962Z,100606.16
2019-06-26T06:49:56.770Z,100608.00
2019-06-26T06:50:32.618Z,100603.23
2019-06-26T06:51:08.574Z,100601.10
2019-06-26T06:51:44.435Z,100603.70
2019-06-26T06:52:20.383Z,100602.91
2019-06-26T06:52:56.321Z,100606.23
2019-06-26T06:53:32.284Z,100597.01
2019-06-26T06:54:08.297Z,100606.34
2019-06-26T06:54:44.143Z,100594.87
2019-06-26T06:55:20.030Z,100598.16
2019-06-26T06:55:55.807Z,100599.53
2019-06-26T06:56:31.680Z,100603.30
2019-06-26T06:57:07.649Z,100600.80
2019-06-26T07:09:25.274Z,100584.34
2019-06-26T07:10:01.136Z,100586.48
2019-06-26T07:10:36.965Z,100579.56
2019-06-26T07:11:12.803Z,100577.30
2019-06-26T07:11:48.552Z,100577.17
2019-06-26T07:12:24.589Z,100580.23
2019-06-26T07:13:00.705Z,100577.84
2019-06-26T07:13:36.708Z,100577.39
2019-06-26T07:14:12.569Z,100576.93
2019-06-26T07:14:48.481Z,100568.97
2019-06-26T07:15:24.320Z,100569.28
2019-06-26T07:16:00.170Z,100575.06
2019-06-26T07:16:36.002Z,100570.26
2019-06-26T07:17:20.352Z,100566.95
2019-06-26T07:17:49.487Z,100566.16
2019-06-26T07:18:25.403Z,100572.73
2019-06-26T07:19:01.230Z,100572.27
2019-06-26T07:19:37.059Z,100567.50
2019-06-26T07:20:13.322Z,100564.98
2019-06-26T07:20:49.254Z,100565.44
2019-06-26T07:21:25.166Z,100568.17
2019-06-26T07:22:01.406Z,100559.53
2019-06-26T07:22:37.242Z,100568.05
2019-06-26T07:23:13.090Z,100559.53
2019-06-26T07:23:48.983Z,100552.95
2019-06-26T07:24:24.795Z,100553.41
2019-06-26T07:25:00.626Z,100556.59